sensor_id;sensor_type;location;lat;lon;timestamp;temperature;humidity
56336;DHT22;42241;53.510;10.170;2022-12-29T00:01:16;7.90;99.90
56336;DHT22;42241;53.510;10.170;2022-12-29T00:03:44;7.90;99.90
56336;DHT22;42241;53.510;10.170;2022-12-29T00:06:10;7.90;99.90
56336;DHT22;42241;53.510;10.170;2022-12-29T00:08:35;7.90;99.90
56336;DHT22;42241;53.510;10.170;2022-12-29T00:11:08;8.00;99.90
56336;DHT22;42241;53.510;10.170;2022-12-29T00:13:34;8.00;99.90
56336;DHT22;42241;53.510;10.170;2022-12-29T00:16:17;8.00;99.90
56336;DHT22;42241;53.510;10.170;2022-12-29T00:18:43;8.10;99.90
56336;DHT22;42241;53.510;10.170;2022-12-29T00:21:16;8.10;99.90
56336;DHT22;42241;53.510;10.170;2022-12-29T00:24:00;8.10;99.90
56336;DHT22;42241;53.510;10.170;2022-12-29T00:26:57;8.10;99.90
56336;DHT22;42241;53.510;10.170;2022-12-29T00:29:41;8.10;99.90
56336;DHT22;42241;53.510;10.170;2022-12-29T00:32:26;8.10;99.90
56336;DHT22;42241;53.510;10.170;2022-12-29T00:35:11;8.20;99.90
56336;DHT22;42241;53.510;10.170;2022-12-29T00:37:41;8.20;99.90
56336;DHT22;42241;53.510;10.170;2022-12-29T00:40:26;8.20;99.90
56336;DHT22;42241;53.510;10.170;2022-12-29T00:43:10;8.20;99.90
56336;DHT22;42241;53.510;10.170;2022-12-29T00:45:55;8.20;99.90
56336;DHT22;42241;53.510;10.170;2022-12-29T00:48:21;8.30;99.90
56336;DHT22;42241;53.510;10.170;2022-12-29T00:51:05;8.30;99.90
56336;DHT22;42241;53.510;10.170;2022-12-29T00:53:31;8.40;99.90
56336;DHT22;42241;53.510;10.170;2022-12-29T00:55:57;8.40;99.90
56336;DHT22;42241;53.510;10.170;2022-12-29T00:58:22;8.40;99.90
56336;DHT22;42241;53.510;10.170;2022-12-29T01:00:48;8.50;99.90
56336;DHT22;42241;53.510;10.170;2022-12-29T01:03:13;8.50;99.90
56336;DHT22;42241;53.510;10.170;2022-12-29T01:05:39;8.50;99.90
56336;DHT22;42241;53.510;10.170;2022-12-29T01:08:04;8.50;99.90
56336;DHT22;42241;53.510;10.170;2022-12-29T01:10:30;8.50;99.90
56336;DHT22;42241;53.510;10.170;2022-12-29T01:12:56;8.50;99.90
56336;DHT22;42241;53.510;10.170;2022-12-29T01:15:21;8.50;99.90
56336;DHT22;42241;53.510;10.170;2022-12-29T01:17:47;8.50;99.90
56336;DHT22;42241;53.510;10.170;2022-12-29T01:20:12;8.60;99.90
56336;DHT22;42241;53.510;10.170;2022-12-29T01:22:38;8.60;99.90
56336;DHT22;42241;53.510;10.170;2022-12-29T01:25:04;8.60;99.90
56336;DHT22;42241;53.510;10.170;2022-12-29T01:27:30;8.70;99.90
56336;DHT22;42241;53.510;10.170;2022-12-29T01:29:56;8.70;99.90
56336;DHT22;42241;53.510;10.170;2022-12-29T01:32:21;8.70;99.90
56336;DHT22;42241;53.510;10.170;2022-12-29T01:34:47;8.70;99.90
56336;DHT22;42241;53.510;10.170;2022-12-29T01:37:12;8.80;99.90
56336;DHT22;42241;53.510;10.170;2022-12-29T01:39:38;8.80;99.90
56336;DHT22;42241;53.510;10.170;2022-12-29T01:42:03;8.80;99.90
56336;DHT22;42241;53.510;10.170;2022-12-29T01:47:19;8.80;99.90
56336;DHT22;42241;53.510;10.170;2022-12-29T01:49:46;8.80;99.90
56336;DHT22;42241;53.510;10.170;2022-12-29T01:52:11;8.80;99.90
56336;DHT22;42241;53.510;10.170;2022-12-29T01:54:42;8.80;99.90
56336;DHT22;42241;53.510;10.170;2022-12-29T01:57:10;8.70;99.90
56336;DHT22;42241;53.510;10.170;2022-12-29T01:59:40;8.70;99.90
56336;DHT22;42241;53.510;10.170;2022-12-29T02:02:06;8.70;99.90
56336;DHT22;42241;53.510;10.170;2022-12-29T02:04:32;8.60;99.90
56336;DHT22;42241;53.510;10.170;2022-12-29T02:07:03;8.60;99.90
56336;DHT22;42241;53.510;10.170;2022-12-29T02:09:29;8.60;99.90
56336;DHT22;42241;53.510;10.170;2022-12-29T02:11:55;8.60;99.90
56336;DHT22;42241;53.510;10.170;2022-12-29T02:14:21;8.60;99.90
56336;DHT22;42241;53.510;10.170;2022-12-29T02:21:53;8.60;99.90
56336;DHT22;42241;53.510;10.170;2022-12-29T02:27:02;8.60;99.90
56336;DHT22;42241;53.510;10.170;2022-12-29T02:34:31;8.70;99.90
56336;DHT22;42241;53.510;10.170;2022-12-29T02:37:05;8.70;99.90
56336;DHT22;42241;53.510;10.170;2022-12-29T02:39:41;8.70;99.90
56336;DHT22;42241;53.510;10.170;2022-12-29T02:42:18;8.70;99.90
56336;DHT22;42241;53.510;10.170;2022-12-29T02:47:20;8.70;99.90
56336;DHT22;42241;53.510;10.170;2022-12-29T02:52:22;8.70;99.90
56336;DHT22;42241;53.510;10.170;2022-12-29T02:54:48;8.80;99.90
56336;DHT22;42241;53.510;10.170;2022-12-29T02:59:47;8.80;99.90
56336;DHT22;42241;53.510;10.170;2022-12-29T03:15:20;8.80;99.90
56336;DHT22;42241;53.510;10.170;2022-12-29T03:18:06;8.80;99.90
56336;DHT22;42241;53.510;10.170;2022-12-29T03:20:53;8.90;99.90
56336;DHT22;42241;53.510;10.170;2022-12-29T03:23:18;9.00;99.90
56336;DHT22;42241;53.510;10.170;2022-12-29T03:25:45;9.00;99.90
56336;DHT22;42241;53.510;10.170;2022-12-29T03:28:13;9.00;99.90
56336;DHT22;42241;53.510;10.170;2022-12-29T03:30:42;9.10;99.90
56336;DHT22;42241;53.510;10.170;2022-12-29T03:33:09;9.10;99.90
56336;DHT22;42241;53.510;10.170;2022-12-29T03:35:36;9.10;99.90
56336;DHT22;42241;53.510;10.170;2022-12-29T03:40:31;9.00;99.90
56336;DHT22;42241;53.510;10.170;2022-12-29T03:42:57;9.00;99.90
56336;DHT22;42241;53.510;10.170;2022-12-29T03:45:23;9.00;99.90
56336;DHT22;42241;53.510;10.170;2022-12-29T03:47:48;9.00;99.90
56336;DHT22;42241;53.510;10.170;2022-12-29T03:50:14;9.00;99.90
56336;DHT22;42241;53.510;10.170;2022-12-29T03:52:39;9.00;99.90
56336;DHT22;42241;53.510;10.170;2022-12-29T03:55:05;9.00;99.90
56336;DHT22;42241;53.510;10.170;2022-12-29T03:57:31;9.00;99.90
56336;DHT22;42241;53.510;10.170;2022-12-29T03:59:56;9.00;99.90
56336;DHT22;42241;53.510;10.170;2022-12-29T04:02:22;9.00;99.90
56336;DHT22;42241;53.510;10.170;2022-12-29T04:04:48;8.90;99.90
56336;DHT22;42241;53.510;10.170;2022-12-29T04:07:14;8.90;99.90
56336;DHT22;42241;53.510;10.170;2022-12-29T04:09:40;8.90;99.90
56336;DHT22;42241;53.510;10.170;2022-12-29T04:12:05;8.90;99.90
56336;DHT22;42241;53.510;10.170;2022-12-29T04:14:31;8.90;99.90
56336;DHT22;42241;53.510;10.170;2022-12-29T04:16:56;8.90;99.90
56336;DHT22;42241;53.510;10.170;2022-12-29T04:19:22;9.00;99.90
56336;DHT22;42241;53.510;10.170;2022-12-29T04:21:47;8.90;99.90
56336;DHT22;42241;53.510;10.170;2022-12-29T04:24:13;9.00;99.90
56336;DHT22;42241;53.510;10.170;2022-12-29T04:26:39;9.00;99.90
56336;DHT22;42241;53.510;10.170;2022-12-29T04:29:04;9.00;99.90
56336;DHT22;42241;53.510;10.170;2022-12-29T04:31:30;9.00;99.90
56336;DHT22;42241;53.510;10.170;2022-12-29T04:33:55;9.10;99.90
56336;DHT22;42241;53.510;10.170;2022-12-29T04:36:22;9.00;99.90
56336;DHT22;42241;53.510;10.170;2022-12-29T04:38:48;9.10;99.90
56336;DHT22;42241;53.510;10.170;2022-12-29T04:41:13;9.10;99.90
56336;DHT22;42241;53.510;10.170;2022-12-29T04:43:39;9.10;99.90
56336;DHT22;42241;53.510;10.170;2022-12-29T04:46:05;9.10;99.90
56336;DHT22;42241;53.510;10.170;2022-12-29T04:48:30;9.10;99.90
56336;DHT22;42241;53.510;10.170;2022-12-29T04:50:56;9.20;99.90
56336;DHT22;42241;53.510;10.170;2022-12-29T04:53:22;9.20;99.90
56336;DHT22;42241;53.510;10.170;2022-12-29T04:55:50;9.20;99.90
56336;DHT22;42241;53.510;10.170;2022-12-29T04:58:16;9.30;99.90
56336;DHT22;42241;53.510;10.170;2022-12-29T05:00:42;9.30;99.90
56336;DHT22;42241;53.510;10.170;2022-12-29T05:03:07;9.30;99.90
56336;DHT22;42241;53.510;10.170;2022-12-29T05:05:33;9.30;99.90
56336;DHT22;42241;53.510;10.170;2022-12-29T05:07:59;9.30;99.90
56336;DHT22;42241;53.510;10.170;2022-12-29T05:10:24;9.40;99.90
56336;DHT22;42241;53.510;10.170;2022-12-29T05:15:53;9.40;99.90
56336;DHT22;42241;53.510;10.170;2022-12-29T05:18:19;9.30;99.90
56336;DHT22;42241;53.510;10.170;2022-12-29T05:20:47;9.30;99.90
56336;DHT22;42241;53.510;10.170;2022-12-29T05:23:13;9.30;99.90
56336;DHT22;42241;53.510;10.170;2022-12-29T05:25:39;9.30;99.90
56336;DHT22;42241;53.510;10.170;2022-12-29T05:28:04;9.20;99.90
56336;DHT22;42241;53.510;10.170;2022-12-29T05:30:30;9.20;99.90
56336;DHT22;42241;53.510;10.170;2022-12-29T05:32:56;9.20;99.90
56336;DHT22;42241;53.510;10.170;2022-12-29T05:35:21;9.30;99.90
56336;DHT22;42241;53.510;10.170;2022-12-29T05:37:46;9.30;99.90
56336;DHT22;42241;53.510;10.170;2022-12-29T05:40:12;9.30;99.90
56336;DHT22;42241;53.510;10.170;2022-12-29T05:42:38;9.30;99.90
56336;DHT22;42241;53.510;10.170;2022-12-29T05:45:03;9.30;99.90
56336;DHT22;42241;53.510;10.170;2022-12-29T05:47:32;9.30;99.90
56336;DHT22;42241;53.510;10.170;2022-12-29T05:49:57;9.30;99.90
56336;DHT22;42241;53.510;10.170;2022-12-29T05:52:23;9.30;99.90
56336;DHT22;42241;53.510;10.170;2022-12-29T05:54:49;9.40;99.90
56336;DHT22;42241;53.510;10.170;2022-12-29T05:57:14;9.40;99.90
56336;DHT22;42241;53.510;10.170;2022-12-29T05:59:40;9.40;99.90
56336;DHT22;42241;53.510;10.170;2022-12-29T06:02:05;9.40;99.90
56336;DHT22;42241;53.510;10.170;2022-12-29T06:04:31;9.50;99.90
56336;DHT22;42241;53.510;10.170;2022-12-29T06:06:56;9.40;99.90
56336;DHT22;42241;53.510;10.170;2022-12-29T06:09:22;9.50;99.90
56336;DHT22;42241;53.510;10.170;2022-12-29T06:11:48;9.50;99.90
56336;DHT22;42241;53.510;10.170;2022-12-29T06:14:13;9.50;99.90
56336;DHT22;42241;53.510;10.170;2022-12-29T06:16:39;9.50;99.90
56336;DHT22;42241;53.510;10.170;2022-12-29T06:19:04;9.60;99.90
56336;DHT22;42241;53.510;10.170;2022-12-29T06:21:30;9.50;99.90
56336;DHT22;42241;53.510;10.170;2022-12-29T06:23:55;9.60;99.90
56336;DHT22;42241;53.510;10.170;2022-12-29T06:26:21;9.60;99.90
56336;DHT22;42241;53.510;10.170;2022-12-29T06:28:46;9.60;99.90
56336;DHT22;42241;53.510;10.170;2022-12-29T06:31:12;9.60;99.90
56336;DHT22;42241;53.510;10.170;2022-12-29T06:33:37;9.50;99.90
56336;DHT22;42241;53.510;10.170;2022-12-29T06:36:03;9.50;99.90
56336;DHT22;42241;53.510;10.170;2022-12-29T06:38:29;9.50;99.90
56336;DHT22;42241;53.510;10.170;2022-12-29T06:40:54;9.50;99.90
56336;DHT22;42241;53.510;10.170;2022-12-29T06:43:20;9.50;99.90
56336;DHT22;42241;53.510;10.170;2022-12-29T06:45:45;9.40;99.90
56336;DHT22;42241;53.510;10.170;2022-12-29T06:48:11;9.40;99.90
56336;DHT22;42241;53.510;10.170;2022-12-29T06:50:36;9.40;99.90
56336;DHT22;42241;53.510;10.170;2022-12-29T06:53:02;9.40;99.90
56336;DHT22;42241;53.510;10.170;2022-12-29T06:55:28;9.50;99.90
56336;DHT22;42241;53.510;10.170;2022-12-29T06:57:56;9.50;99.90
56336;DHT22;42241;53.510;10.170;2022-12-29T07:00:23;9.40;99.90
56336;DHT22;42241;53.510;10.170;2022-12-29T07:02:54;9.50;99.90
56336;DHT22;42241;53.510;10.170;2022-12-29T07:05:19;9.50;99.90
56336;DHT22;42241;53.510;10.170;2022-12-29T07:07:45;9.40;99.90
56336;DHT22;42241;53.510;10.170;2022-12-29T07:10:10;9.40;99.90
56336;DHT22;42241;53.510;10.170;2022-12-29T07:12:36;9.40;99.90
56336;DHT22;42241;53.510;10.170;2022-12-29T07:15:01;9.30;99.90
56336;DHT22;42241;53.510;10.170;2022-12-29T07:17:27;9.30;99.90
56336;DHT22;42241;53.510;10.170;2022-12-29T07:19:52;9.30;99.90
56336;DHT22;42241;53.510;10.170;2022-12-29T07:22:18;9.30;99.90
56336;DHT22;42241;53.510;10.170;2022-12-29T07:24:43;9.30;99.90
56336;DHT22;42241;53.510;10.170;2022-12-29T07:27:09;9.30;99.90
56336;DHT22;42241;53.510;10.170;2022-12-29T07:29:36;9.30;99.90
56336;DHT22;42241;53.510;10.170;2022-12-29T07:32:02;9.30;99.90
56336;DHT22;42241;53.510;10.170;2022-12-29T07:34:27;9.40;99.90
56336;DHT22;42241;53.510;10.170;2022-12-29T07:36:53;9.40;99.90
56336;DHT22;42241;53.510;10.170;2022-12-29T07:39:19;9.40;99.90
56336;DHT22;42241;53.510;10.170;2022-12-29T07:41:44;9.40;99.90
56336;DHT22;42241;53.510;10.170;2022-12-29T07:44:10;9.40;99.90
56336;DHT22;42241;53.510;10.170;2022-12-29T07:46:35;9.50;99.90
56336;DHT22;42241;53.510;10.170;2022-12-29T07:49:01;9.50;99.90
56336;DHT22;42241;53.510;10.170;2022-12-29T07:51:26;9.40;99.90
56336;DHT22;42241;53.510;10.170;2022-12-29T07:53:52;9.40;99.90
56336;DHT22;42241;53.510;10.170;2022-12-29T07:56:17;9.40;99.90
56336;DHT22;42241;53.510;10.170;2022-12-29T07:58:43;9.40;99.90
56336;DHT22;42241;53.510;10.170;2022-12-29T08:01:08;9.30;99.90
56336;DHT22;42241;53.510;10.170;2022-12-29T08:03:34;9.40;99.90
56336;DHT22;42241;53.510;10.170;2022-12-29T08:05:59;9.30;99.90
56336;DHT22;42241;53.510;10.170;2022-12-29T08:08:25;9.30;99.90
56336;DHT22;42241;53.510;10.170;2022-12-29T08:10:50;9.30;99.90
56336;DHT22;42241;53.510;10.170;2022-12-29T08:13:16;9.30;99.90
56336;DHT22;42241;53.510;10.170;2022-12-29T08:15:41;9.30;99.90
56336;DHT22;42241;53.510;10.170;2022-12-29T08:18:07;9.30;99.90
56336;DHT22;42241;53.510;10.170;2022-12-29T08:20:33;9.30;99.90
56336;DHT22;42241;53.510;10.170;2022-12-29T08:22:58;9.30;99.90
56336;DHT22;42241;53.510;10.170;2022-12-29T08:25:24;9.30;99.90
56336;DHT22;42241;53.510;10.170;2022-12-29T08:27:50;9.30;99.90
56336;DHT22;42241;53.510;10.170;2022-12-29T08:30:15;9.30;99.90
56336;DHT22;42241;53.510;10.170;2022-12-29T08:32:41;9.40;99.90
56336;DHT22;42241;53.510;10.170;2022-12-29T08:35:07;9.40;99.90
56336;DHT22;42241;53.510;10.170;2022-12-29T08:37:35;9.30;99.90
56336;DHT22;42241;53.510;10.170;2022-12-29T08:40:03;9.20;99.90
56336;DHT22;42241;53.510;10.170;2022-12-29T08:42:30;9.20;99.90
56336;DHT22;42241;53.510;10.170;2022-12-29T08:44:56;9.30;99.90
56336;DHT22;42241;53.510;10.170;2022-12-29T08:47:22;9.40;99.90
56336;DHT22;42241;53.510;10.170;2022-12-29T08:49:48;9.50;99.90
56336;DHT22;42241;53.510;10.170;2022-12-29T08:52:13;9.50;99.90
56336;DHT22;42241;53.510;10.170;2022-12-29T08:54:39;9.60;99.90
56336;DHT22;42241;53.510;10.170;2022-12-29T08:57:05;9.70;99.90
56336;DHT22;42241;53.510;10.170;2022-12-29T08:59:30;9.80;99.90
56336;DHT22;42241;53.510;10.170;2022-12-29T09:01:56;9.90;99.90
56336;DHT22;42241;53.510;10.170;2022-12-29T09:04:21;9.90;99.90
56336;DHT22;42241;53.510;10.170;2022-12-29T09:06:48;9.80;99.90
56336;DHT22;42241;53.510;10.170;2022-12-29T09:09:14;9.80;99.90
56336;DHT22;42241;53.510;10.170;2022-12-29T09:11:40;9.80;99.90
56336;DHT22;42241;53.510;10.170;2022-12-29T09:14:06;9.90;99.90
56336;DHT22;42241;53.510;10.170;2022-12-29T09:16:32;9.90;99.90
56336;DHT22;42241;53.510;10.170;2022-12-29T09:18:58;9.90;99.90
56336;DHT22;42241;53.510;10.170;2022-12-29T09:21:23;9.90;99.90
56336;DHT22;42241;53.510;10.170;2022-12-29T09:23:49;10.10;99.90
56336;DHT22;42241;53.510;10.170;2022-12-29T09:26:14;10.10;99.90
56336;DHT22;42241;53.510;10.170;2022-12-29T09:28:40;10.40;99.90
56336;DHT22;42241;53.510;10.170;2022-12-29T09:31:06;11.50;99.90
56336;DHT22;42241;53.510;10.170;2022-12-29T09:33:31;12.00;99.90
56336;DHT22;42241;53.510;10.170;2022-12-29T09:36:00;12.10;99.90
56336;DHT22;42241;53.510;10.170;2022-12-29T09:38:26;12.40;99.90
56336;DHT22;42241;53.510;10.170;2022-12-29T09:40:55;13.00;99.90
56336;DHT22;42241;53.510;10.170;2022-12-29T09:48:32;13.20;99.90
56336;DHT22;42241;53.510;10.170;2022-12-29T09:50:59;12.90;99.90
56336;DHT22;42241;53.510;10.170;2022-12-29T09:55:54;12.50;99.90
56336;DHT22;42241;53.510;10.170;2022-12-29T10:03:16;14.90;99.90
56336;DHT22;42241;53.510;10.170;2022-12-29T10:10:45;13.80;99.90
56336;DHT22;42241;53.510;10.170;2022-12-29T10:16:04;14.00;99.90
56336;DHT22;42241;53.510;10.170;2022-12-29T10:18:38;14.30;99.90
56336;DHT22;42241;53.510;10.170;2022-12-29T10:26:14;12.70;99.90
56336;DHT22;42241;53.510;10.170;2022-12-29T10:33:51;11.80;99.90
56336;DHT22;42241;53.510;10.170;2022-12-29T10:36:53;12.10;99.90
56336;DHT22;42241;53.510;10.170;2022-12-29T10:42:04;13.50;99.90
56336;DHT22;42241;53.510;10.170;2022-12-29T10:44:34;15.10;99.90
56336;DHT22;42241;53.510;10.170;2022-12-29T10:47:02;15.90;99.90
56336;DHT22;42241;53.510;10.170;2022-12-29T10:49:30;16.40;99.90
56336;DHT22;42241;53.510;10.170;2022-12-29T10:51:58;15.70;99.90
56336;DHT22;42241;53.510;10.170;2022-12-29T10:54:26;14.80;99.90
56336;DHT22;42241;53.510;10.170;2022-12-29T10:57:09;14.00;99.90
56336;DHT22;42241;53.510;10.170;2022-12-29T10:59:36;13.20;99.90
56336;DHT22;42241;53.510;10.170;2022-12-29T11:04:45;12.20;99.90
56336;DHT22;42241;53.510;10.170;2022-12-29T11:07:12;12.00;99.90
56336;DHT22;42241;53.510;10.170;2022-12-29T11:09:41;12.00;99.90
56336;DHT22;42241;53.510;10.170;2022-12-29T11:17:27;15.70;99.90
56336;DHT22;42241;53.510;10.170;2022-12-29T11:19:52;14.80;99.90
56336;DHT22;42241;53.510;10.170;2022-12-29T11:22:22;14.00;99.90
56336;DHT22;42241;53.510;10.170;2022-12-29T11:24:49;13.60;99.90
56336;DHT22;42241;53.510;10.170;2022-12-29T11:27:16;12.90;99.90
56336;DHT22;42241;53.510;10.170;2022-12-29T11:29:43;12.50;99.90
56336;DHT22;42241;53.510;10.170;2022-12-29T11:32:13;12.00;99.90
56336;DHT22;42241;53.510;10.170;2022-12-29T11:34:42;11.70;99.90
56336;DHT22;42241;53.510;10.170;2022-12-29T11:37:12;11.40;99.90
56336;DHT22;42241;53.510;10.170;2022-12-29T11:42:31;11.30;99.90
56336;DHT22;42241;53.510;10.170;2022-12-29T11:44:59;11.10;99.90
56336;DHT22;42241;53.510;10.170;2022-12-29T11:47:29;11.00;99.90
56336;DHT22;42241;53.510;10.170;2022-12-29T11:49:57;11.00;99.90
56336;DHT22;42241;53.510;10.170;2022-12-29T11:52:23;10.90;99.90
56336;DHT22;42241;53.510;10.170;2022-12-29T11:54:50;10.90;99.90
56336;DHT22;42241;53.510;10.170;2022-12-29T12:00:20;10.80;99.90
56336;DHT22;42241;53.510;10.170;2022-12-29T12:03:03;11.00;99.90
56336;DHT22;42241;53.510;10.170;2022-12-29T12:05:31;11.20;99.90
56336;DHT22;42241;53.510;10.170;2022-12-29T12:10:30;11.10;99.90
56336;DHT22;42241;53.510;10.170;2022-12-29T12:13:41;11.00;99.90
56336;DHT22;42241;53.510;10.170;2022-12-29T12:16:05;10.80;99.90
56336;DHT22;42241;53.510;10.170;2022-12-29T12:18:41;10.60;99.90
56336;DHT22;42241;53.510;10.170;2022-12-29T12:26:28;10.80;99.90
56336;DHT22;42241;53.510;10.170;2022-12-29T12:34:45;11.70;99.90
56336;DHT22;42241;53.510;10.170;2022-12-29T12:45:24;11.00;99.90
56336;DHT22;42241;53.510;10.170;2022-12-29T12:48:03;10.90;99.90
56336;DHT22;42241;53.510;10.170;2022-12-29T13:11:17;11.10;99.90
56336;DHT22;42241;53.510;10.170;2022-12-29T13:19:35;11.00;99.90
56336;DHT22;42241;53.510;10.170;2022-12-29T13:22:25;11.00;99.90
56336;DHT22;42241;53.510;10.170;2022-12-29T13:30:03;11.00;99.90
56336;DHT22;42241;53.510;10.170;2022-12-29T13:32:34;10.90;99.90
56336;DHT22;42241;53.510;10.170;2022-12-29T13:37:51;10.90;99.90
56336;DHT22;42241;53.510;10.170;2022-12-29T13:40:19;10.90;99.90
56336;DHT22;42241;53.510;10.170;2022-12-29T13:42:49;10.80;99.90
56336;DHT22;42241;53.510;10.170;2022-12-29T13:45:19;10.80;99.90
56336;DHT22;42241;53.510;10.170;2022-12-29T13:47:47;10.80;99.90
56336;DHT22;42241;53.510;10.170;2022-12-29T13:50:18;10.80;99.90
56336;DHT22;42241;53.510;10.170;2022-12-29T13:57:48;10.60;99.90
56336;DHT22;42241;53.510;10.170;2022-12-29T14:00:21;10.60;99.90
56336;DHT22;42241;53.510;10.170;2022-12-29T14:05:31;10.50;99.90
56336;DHT22;42241;53.510;10.170;2022-12-29T14:08:13;10.40;99.90
56336;DHT22;42241;53.510;10.170;2022-12-29T14:13:16;10.30;99.90
56336;DHT22;42241;53.510;10.170;2022-12-29T14:15:43;10.30;99.90
56336;DHT22;42241;53.510;10.170;2022-12-29T14:20:34;10.30;99.90
56336;DHT22;42241;53.510;10.170;2022-12-29T14:23:01;10.30;99.90
56336;DHT22;42241;53.510;10.170;2022-12-29T14:25:56;10.20;99.90
56336;DHT22;42241;53.510;10.170;2022-12-29T14:28:23;10.20;99.90
56336;DHT22;42241;53.510;10.170;2022-12-29T14:30:50;10.20;99.90
56336;DHT22;42241;53.510;10.170;2022-12-29T14:33:16;10.20;99.90
56336;DHT22;42241;53.510;10.170;2022-12-29T14:35:43;10.10;99.90
56336;DHT22;42241;53.510;10.170;2022-12-29T14:38:16;10.10;99.90
56336;DHT22;42241;53.510;10.170;2022-12-29T14:40:42;10.00;99.90
56336;DHT22;42241;53.510;10.170;2022-12-29T14:43:12;9.60;99.90
56336;DHT22;42241;53.510;10.170;2022-12-29T14:45:38;9.20;99.90
56336;DHT22;42241;53.510;10.170;2022-12-29T14:50:51;8.90;99.90
56336;DHT22;42241;53.510;10.170;2022-12-29T14:56:01;8.80;99.90
56336;DHT22;42241;53.510;10.170;2022-12-29T14:58:28;8.80;99.90
56336;DHT22;42241;53.510;10.170;2022-12-29T15:00:55;8.80;99.90
56336;DHT22;42241;53.510;10.170;2022-12-29T15:03:25;8.90;99.90
56336;DHT22;42241;53.510;10.170;2022-12-29T15:06:04;8.90;99.90
56336;DHT22;42241;53.510;10.170;2022-12-29T15:08:43;8.80;99.90
56336;DHT22;42241;53.510;10.170;2022-12-29T15:11:14;8.80;99.90
56336;DHT22;42241;53.510;10.170;2022-12-29T15:13:42;8.80;99.90
56336;DHT22;42241;53.510;10.170;2022-12-29T15:18:49;8.50;99.90
56336;DHT22;42241;53.510;10.170;2022-12-29T15:21:15;8.40;99.90
56336;DHT22;42241;53.510;10.170;2022-12-29T15:23:42;8.30;99.90
56336;DHT22;42241;53.510;10.170;2022-12-29T15:26:08;8.30;99.90
56336;DHT22;42241;53.510;10.170;2022-12-29T15:28:41;8.20;99.90
56336;DHT22;42241;53.510;10.170;2022-12-29T15:31:14;8.20;99.90
56336;DHT22;42241;53.510;10.170;2022-12-29T15:33:41;8.20;99.90
56336;DHT22;42241;53.510;10.170;2022-12-29T15:36:26;8.20;99.90
56336;DHT22;42241;53.510;10.170;2022-12-29T15:38:52;8.20;99.90
56336;DHT22;42241;53.510;10.170;2022-12-29T15:44:24;8.10;99.90
56336;DHT22;42241;53.510;10.170;2022-12-29T15:46:50;8.10;99.90
56336;DHT22;42241;53.510;10.170;2022-12-29T15:49:16;8.20;99.90
56336;DHT22;42241;53.510;10.170;2022-12-29T15:51:41;8.20;99.90
56336;DHT22;42241;53.510;10.170;2022-12-29T15:54:17;8.20;99.90
56336;DHT22;42241;53.510;10.170;2022-12-29T15:56:43;8.30;99.90
56336;DHT22;42241;53.510;10.170;2022-12-29T16:01:56;8.40;99.90
56336;DHT22;42241;53.510;10.170;2022-12-29T16:04:22;8.40;99.90
56336;DHT22;42241;53.510;10.170;2022-12-29T16:06:59;8.40;99.90
56336;DHT22;42241;53.510;10.170;2022-12-29T16:09:29;8.40;99.90
56336;DHT22;42241;53.510;10.170;2022-12-29T16:11:56;8.40;99.90
56336;DHT22;42241;53.510;10.170;2022-12-29T16:14:30;8.40;99.90
56336;DHT22;42241;53.510;10.170;2022-12-29T16:16:58;8.40;99.90
56336;DHT22;42241;53.510;10.170;2022-12-29T16:19:28;8.40;99.90
56336;DHT22;42241;53.510;10.170;2022-12-29T16:21:55;8.40;99.90
56336;DHT22;42241;53.510;10.170;2022-12-29T16:24:22;8.40;99.90
56336;DHT22;42241;53.510;10.170;2022-12-29T16:26:54;8.50;99.90
56336;DHT22;42241;53.510;10.170;2022-12-29T16:29:22;8.50;99.90
56336;DHT22;42241;53.510;10.170;2022-12-29T16:36:52;8.60;99.90
56336;DHT22;42241;53.510;10.170;2022-12-29T16:39:19;8.70;99.90
56336;DHT22;42241;53.510;10.170;2022-12-29T16:41:48;8.60;99.90
56336;DHT22;42241;53.510;10.170;2022-12-29T16:46:44;8.60;99.90
56336;DHT22;42241;53.510;10.170;2022-12-29T16:49:21;8.50;99.90
56336;DHT22;42241;53.510;10.170;2022-12-29T16:51:46;8.40;99.90
56336;DHT22;42241;53.510;10.170;2022-12-29T16:54:18;8.40;99.90
56336;DHT22;42241;53.510;10.170;2022-12-29T16:56:45;8.40;99.90
56336;DHT22;42241;53.510;10.170;2022-12-29T16:59:19;8.40;99.90
56336;DHT22;42241;53.510;10.170;2022-12-29T17:01:49;8.40;99.90
56336;DHT22;42241;53.510;10.170;2022-12-29T17:04:14;8.40;99.90
56336;DHT22;42241;53.510;10.170;2022-12-29T17:06:40;8.40;99.90
56336;DHT22;42241;53.510;10.170;2022-12-29T17:11:43;8.40;99.90
56336;DHT22;42241;53.510;10.170;2022-12-29T17:17:02;8.30;99.90
56336;DHT22;42241;53.510;10.170;2022-12-29T17:19:29;8.30;99.90
56336;DHT22;42241;53.510;10.170;2022-12-29T17:21:55;8.20;99.90
56336;DHT22;42241;53.510;10.170;2022-12-29T17:24:21;8.20;99.90
56336;DHT22;42241;53.510;10.170;2022-12-29T17:26:53;8.20;99.90
56336;DHT22;42241;53.510;10.170;2022-12-29T17:29:27;8.20;99.90
56336;DHT22;42241;53.510;10.170;2022-12-29T17:31:54;8.20;99.90
56336;DHT22;42241;53.510;10.170;2022-12-29T17:34:19;8.20;99.90
56336;DHT22;42241;53.510;10.170;2022-12-29T17:36:45;8.20;99.90
56336;DHT22;42241;53.510;10.170;2022-12-29T17:39:11;8.20;99.90
56336;DHT22;42241;53.510;10.170;2022-12-29T17:41:37;8.10;99.90
56336;DHT22;42241;53.510;10.170;2022-12-29T17:44:03;8.10;99.90
56336;DHT22;42241;53.510;10.170;2022-12-29T17:46:29;8.10;99.90
56336;DHT22;42241;53.510;10.170;2022-12-29T17:48:54;8.10;99.90
56336;DHT22;42241;53.510;10.170;2022-12-29T17:51:20;8.10;99.90
56336;DHT22;42241;53.510;10.170;2022-12-29T17:53:46;8.10;99.90
56336;DHT22;42241;53.510;10.170;2022-12-29T17:56:11;8.10;99.90
56336;DHT22;42241;53.510;10.170;2022-12-29T17:58:39;8.20;99.90
56336;DHT22;42241;53.510;10.170;2022-12-29T18:01:05;8.20;99.90
56336;DHT22;42241;53.510;10.170;2022-12-29T18:03:34;8.20;99.90
56336;DHT22;42241;53.510;10.170;2022-12-29T18:06:00;8.20;99.90
56336;DHT22;42241;53.510;10.170;2022-12-29T18:08:26;8.20;99.90
56336;DHT22;42241;53.510;10.170;2022-12-29T18:10:54;8.20;99.90
56336;DHT22;42241;53.510;10.170;2022-12-29T18:13:21;8.10;99.90
56336;DHT22;42241;53.510;10.170;2022-12-29T18:15:48;8.10;99.90
56336;DHT22;42241;53.510;10.170;2022-12-29T18:18:18;8.10;99.90
56336;DHT22;42241;53.510;10.170;2022-12-29T18:20:44;8.10;99.90
56336;DHT22;42241;53.510;10.170;2022-12-29T18:23:31;8.10;99.90
56336;DHT22;42241;53.510;10.170;2022-12-29T18:26:11;8.20;99.90
56336;DHT22;42241;53.510;10.170;2022-12-29T18:28:39;8.30;99.90
56336;DHT22;42241;53.510;10.170;2022-12-29T18:31:08;8.40;99.90
56336;DHT22;42241;53.510;10.170;2022-12-29T18:33:38;8.40;99.90
56336;DHT22;42241;53.510;10.170;2022-12-29T18:36:04;8.40;99.90
56336;DHT22;42241;53.510;10.170;2022-12-29T18:38:30;8.40;99.90